createdAt,value
2022-12-25T00:02:12.495Z,26.00
2022-12-25T00:04:39.051Z,27.67
2022-12-25T00:07:05.616Z,30.02
2022-12-25T00:09:32.126Z,27.67
2022-12-25T00:11:58.587Z,24.48
2022-12-25T00:14:25.065Z,28.95
2022-12-25T00:16:51.513Z,20.80
2022-12-25T00:19:17.930Z,24.60
2022-12-25T00:21:44.500Z,22.98
2022-12-25T00:24:11.010Z,16.83
2022-12-25T00:26:37.536Z,18.45
2022-12-25T00:29:04.017Z,26.50
2022-12-25T00:31:30.651Z,23.70
2022-12-25T00:33:57.151Z,19.48
2022-12-25T00:36:24.285Z,19.27
2022-12-25T00:38:50.849Z,24.55
2022-12-25T00:41:41.849Z,24.67
2022-12-25T00:44:11.271Z,20.88
2022-12-25T00:46:37.798Z,24.98
2022-12-25T00:49:04.763Z,21.75
2022-12-25T00:51:32.232Z,22.75
2022-12-25T00:53:59.264Z,17.93
2022-12-25T00:56:25.966Z,19.98
2022-12-25T00:58:53.525Z,21.80
2022-12-25T01:01:20.098Z,15.25
2022-12-25T01:03:47.007Z,20.83
2022-12-25T01:06:13.438Z,13.83
2022-12-25T01:09:01.407Z,16.75
2022-12-25T01:11:28.469Z,19.83
2022-12-25T01:13:54.967Z,21.83
2022-12-25T01:16:21.925Z,18.73
2022-12-25T01:18:48.512Z,15.98
2022-12-25T01:21:17.262Z,15.68
2022-12-25T01:23:45.048Z,13.57
2022-12-25T01:26:13.325Z,19.60
2022-12-25T01:28:40.835Z,19.58
2022-12-25T01:31:12.645Z,14.82
2022-12-25T01:33:39.969Z,14.88
2022-12-25T01:36:12.277Z,17.33
2022-12-25T01:38:38.756Z,15.35
2022-12-25T01:41:05.268Z,22.02
2022-12-25T01:43:33.054Z,13.90
2022-12-25T01:46:00.085Z,19.33
2022-12-25T01:48:32.647Z,19.25
2022-12-25T01:51:04.065Z,16.85
2022-12-25T01:53:31.163Z,12.60
2022-12-25T01:56:03.419Z,19.93
2022-12-25T01:58:30.544Z,12.57
2022-12-25T02:00:57.168Z,15.63
2022-12-25T02:03:24.041Z,16.27
2022-12-25T02:05:51.025Z,14.43
2022-12-25T02:08:19.450Z,14.80
2022-12-25T02:10:46.315Z,17.13
2022-12-25T02:13:15.238Z,17.55
2022-12-25T02:15:47.957Z,12.75
2022-12-25T02:18:52.057Z,15.50
2022-12-25T02:22:00.643Z,15.32
2022-12-25T02:24:50.221Z,15.07
2022-12-25T02:27:45.010Z,15.60
2022-12-25T02:30:12.329Z,16.75
2022-12-25T02:32:41.834Z,15.32
2022-12-25T02:35:31.139Z,9.23
2022-12-25T02:38:10.944Z,18.63
2022-12-25T02:40:45.413Z,11.05
2022-12-25T02:43:36.331Z,10.85
2022-12-25T02:46:25.305Z,13.68
2022-12-25T02:49:14.923Z,14.47
2022-12-25T02:52:05.293Z,17.25
2022-12-25T02:54:56.619Z,15.50
2022-12-25T02:57:46.865Z,23.00
2022-12-25T03:00:33.173Z,15.95
2022-12-25T03:03:21.204Z,16.40
2022-12-25T03:06:07.616Z,15.18
2022-12-25T03:08:40.150Z,15.60
2022-12-25T03:11:29.899Z,14.75
2022-12-25T03:14:24.467Z,12.40
2022-12-25T03:16:55.473Z,16.20
2022-12-25T03:20:04.396Z,17.02
2022-12-25T03:22:51.377Z,15.38
2022-12-25T03:25:37.899Z,14.48
2022-12-25T03:28:06.028Z,16.15
2022-12-25T03:31:00.274Z,19.63
2022-12-25T03:33:45.099Z,15.05
2022-12-25T03:36:39.669Z,18.48
2022-12-25T03:39:41.421Z,13.27
2022-12-25T03:42:27.328Z,18.15
2022-12-25T03:45:38.038Z,10.07
2022-12-25T03:48:13.013Z,14.10
2022-12-25T03:51:03.736Z,16.35
2022-12-25T03:54:03.649Z,17.95
2022-12-25T03:56:50.654Z,12.60
2022-12-25T03:59:40.948Z,14.05
2022-12-25T04:02:26.357Z,11.55
2022-12-25T04:05:11.610Z,13.75
2022-12-25T04:07:56.904Z,10.82
2022-12-25T04:10:42.205Z,11.55
2022-12-25T04:13:27.663Z,15.05
2022-12-25T04:16:13.362Z,13.85
2022-12-25T04:18:58.901Z,19.55
2022-12-25T04:21:44.234Z,14.70
2022-12-25T04:24:30.090Z,13.95
2022-12-25T04:27:15.948Z,13.93
2022-12-25T04:30:01.260Z,15.40
2022-12-25T04:32:46.072Z,12.10
2022-12-25T04:35:31.212Z,15.52
2022-12-25T04:37:57.679Z,10.00
2022-12-25T04:40:24.122Z,13.07
2022-12-25T04:42:51.669Z,11.15
2022-12-25T04:45:18.373Z,15.30
2022-12-25T04:47:44.875Z,14.70
2022-12-25T04:50:11.860Z,13.52
2022-12-25T04:52:40.058Z,14.82
2022-12-25T04:55:08.153Z,12.80
2022-12-25T04:57:35.066Z,9.48
2022-12-25T05:00:01.544Z,11.77
2022-12-25T05:02:28.148Z,16.75
2022-12-25T05:04:54.799Z,12.80
2022-12-25T05:07:21.308Z,11.45
2022-12-25T05:09:47.754Z,11.63
2022-12-25T05:12:14.549Z,10.45
2022-12-25T05:14:41.271Z,8.52
2022-12-25T05:17:10.525Z,15.83
2022-12-25T05:19:36.994Z,8.00
2022-12-25T05:22:03.425Z,6.80
2022-12-25T05:24:29.959Z,11.48
2022-12-25T05:26:56.482Z,7.75
2022-12-25T05:29:23.012Z,11.27
2022-12-25T05:31:49.505Z,14.90
2022-12-25T05:34:16.099Z,14.55
2022-12-25T05:36:42.546Z,9.73
2022-12-25T05:39:09.027Z,17.63
2022-12-25T05:41:35.566Z,9.90
2022-12-25T05:44:02.106Z,10.57
2022-12-25T05:46:28.797Z,9.55
2022-12-25T05:48:55.492Z,11.35
2022-12-25T05:51:22.052Z,13.68
2022-12-25T05:53:48.683Z,9.93
2022-12-25T05:56:15.310Z,9.63
2022-12-25T05:58:41.860Z,10.70
2022-12-25T06:01:13.748Z,7.05
2022-12-25T06:03:40.324Z,7.65
2022-12-25T06:06:07.372Z,8.87
2022-12-25T06:08:34.535Z,10.82
2022-12-25T06:11:05.785Z,12.05
2022-12-25T06:13:33.313Z,8.68
2022-12-25T06:15:59.873Z,9.80
2022-12-25T06:18:26.569Z,8.63
2022-12-25T06:20:53.105Z,7.53
2022-12-25T06:23:19.685Z,9.43
2022-12-25T06:25:46.150Z,11.88
2022-12-25T06:28:12.666Z,9.18
2022-12-25T06:30:39.231Z,10.13
2022-12-25T06:33:05.725Z,8.82
2022-12-25T06:35:32.355Z,8.20
2022-12-25T06:37:58.893Z,9.68
2022-12-25T06:40:25.388Z,9.73
2022-12-25T06:42:52.214Z,7.82
2022-12-25T06:45:18.681Z,5.53
2022-12-25T06:47:45.100Z,7.63
2022-12-25T06:50:11.612Z,8.57
2022-12-25T06:52:38.086Z,7.55
2022-12-25T06:55:04.926Z,10.53
2022-12-25T06:57:31.484Z,7.20
2022-12-25T06:59:57.934Z,8.63
2022-12-25T07:02:25.192Z,6.28
2022-12-25T07:04:52.858Z,9.95
2022-12-25T07:07:19.953Z,6.35
2022-12-25T07:09:46.425Z,11.77
2022-12-25T07:12:17.620Z,11.15
2022-12-25T07:14:45.663Z,8.90
2022-12-25T07:17:12.140Z,5.25
2022-12-25T07:19:44.634Z,7.22
2022-12-25T07:22:11.703Z,6.90
2022-12-25T07:24:38.159Z,9.23
2022-12-25T07:27:04.853Z,4.82
2022-12-25T07:29:31.366Z,6.57
2022-12-25T07:31:57.970Z,8.13
2022-12-25T07:34:24.564Z,5.70
2022-12-25T07:36:51.088Z,10.43
2022-12-25T07:39:17.766Z,7.10
2022-12-25T07:41:44.694Z,6.03
2022-12-25T07:44:11.216Z,6.22
2022-12-25T07:46:37.677Z,5.88
2022-12-25T07:49:04.202Z,5.90
2022-12-25T07:51:30.696Z,5.20
2022-12-25T07:53:57.214Z,5.13
2022-12-25T07:56:23.693Z,7.57
2022-12-25T07:58:50.323Z,7.32
2022-12-25T08:01:23.203Z,4.82
2022-12-25T08:03:57.567Z,7.07
2022-12-25T08:06:29.908Z,6.00
2022-12-25T08:08:57.855Z,7.07
2022-12-25T08:11:24.419Z,6.32
2022-12-25T08:13:50.920Z,4.43
2022-12-25T08:16:17.463Z,9.32
2022-12-25T08:18:44.417Z,6.97
2022-12-25T08:21:13.971Z,7.07
2022-12-25T08:23:42.861Z,11.77
2022-12-25T08:26:12.764Z,9.73
2022-12-25T08:28:39.448Z,5.53
2022-12-25T08:31:11.277Z,5.53
2022-12-25T08:33:38.231Z,6.90
2022-12-25T08:36:07.081Z,7.93
2022-12-25T08:38:33.686Z,10.48
2022-12-25T08:41:00.187Z,5.43
2022-12-25T08:43:26.673Z,5.40
2022-12-25T08:45:53.244Z,7.97
2022-12-25T08:48:19.793Z,4.55
2022-12-25T08:50:47.991Z,9.10
2022-12-25T08:53:16.517Z,5.85
2022-12-25T08:55:43.136Z,8.48
2022-12-25T08:58:10.012Z,9.75
2022-12-25T09:00:37.340Z,7.40
2022-12-25T09:03:04.553Z,7.07
2022-12-25T09:05:31.241Z,9.45
2022-12-25T09:07:57.737Z,6.03
2022-12-25T09:10:24.231Z,7.07
2022-12-25T09:12:50.725Z,5.97
2022-12-25T09:15:17.271Z,4.93
2022-12-25T09:17:43.821Z,8.40
2022-12-25T09:20:10.563Z,6.35
2022-12-25T09:22:37.103Z,7.22
2022-12-25T09:25:03.844Z,6.07
2022-12-25T09:27:30.304Z,6.63
2022-12-25T09:29:56.952Z,8.18
2022-12-25T09:32:23.442Z,5.00
2022-12-25T09:34:50.997Z,7.53
2022-12-25T09:37:17.599Z,6.13
2022-12-25T09:39:46.537Z,7.28
2022-12-25T09:42:31.203Z,5.32
2022-12-25T09:45:09.990Z,5.85
2022-12-25T09:47:40.093Z,5.50
2022-12-25T09:50:35.992Z,7.70
2022-12-25T09:53:23.085Z,7.53
2022-12-25T09:56:00.160Z,5.68
2022-12-25T09:58:28.959Z,4.72
2022-12-25T10:01:41.528Z,8.52
2022-12-25T10:04:17.342Z,7.35
2022-12-25T10:06:52.844Z,5.90
2022-12-25T10:09:37.942Z,6.43
2022-12-25T10:12:10.068Z,5.40
2022-12-25T10:14:43.028Z,7.40
2022-12-25T10:17:31.325Z,5.90
2022-12-25T10:20:41.869Z,6.75
2022-12-25T10:23:37.101Z,6.82
2022-12-25T10:26:12.061Z,5.35
2022-12-25T10:28:43.930Z,6.18
2022-12-25T10:31:25.980Z,5.28
2022-12-25T10:33:53.945Z,6.50
2022-12-25T10:36:26.753Z,6.35
2022-12-25T10:38:54.199Z,5.47
2022-12-25T10:41:58.368Z,7.47
2022-12-25T10:44:25.358Z,7.13
2022-12-25T10:46:55.514Z,6.90
2022-12-25T10:49:24.743Z,6.55
2022-12-25T10:51:51.897Z,6.13
2022-12-25T10:54:27.318Z,9.95
2022-12-25T10:56:58.983Z,7.07
2022-12-25T10:59:27.869Z,9.30
2022-12-25T11:01:57.162Z,7.47
2022-12-25T11:04:28.665Z,9.00
2022-12-25T11:07:15.095Z,9.25
2022-12-25T11:09:49.956Z,8.13
2022-12-25T11:12:22.107Z,5.95
2022-12-25T11:14:57.411Z,10.40
2022-12-25T11:17:26.436Z,8.90
2022-12-25T11:19:55.759Z,11.77
2022-12-25T11:22:22.375Z,8.50
2022-12-25T11:24:48.949Z,10.90
2022-12-25T11:27:26.438Z,11.32
2022-12-25T11:29:58.096Z,10.25
2022-12-25T11:32:37.785Z,10.05
2022-12-25T11:35:12.911Z,11.85
2022-12-25T11:37:47.530Z,8.85
2022-12-25T11:40:17.537Z,18.58
2022-12-25T11:42:51.636Z,10.02
2022-12-25T11:45:28.101Z,50.20
2022-12-25T11:47:59.744Z,11.90
2022-12-25T11:50:55.921Z,8.55
2022-12-25T11:53:28.876Z,6.78
2022-12-25T11:56:05.934Z,8.18
2022-12-25T11:58:38.989Z,11.70
2022-12-25T12:01:16.046Z,11.93
2022-12-25T12:03:43.783Z,13.80
2022-12-25T12:06:15.037Z,14.32
2022-12-25T12:08:42.600Z,18.60
2022-12-25T12:11:22.706Z,18.60
2022-12-25T12:14:12.147Z,29.77
2022-12-25T12:16:38.671Z,17.40
2022-12-25T12:19:13.142Z,11.05
2022-12-25T12:21:44.061Z,12.85
2022-12-25T12:24:20.816Z,17.02
2022-12-25T12:27:00.864Z,9.50
2022-12-25T12:29:31.682Z,11.63
2022-12-25T12:32:02.922Z,10.95
2022-12-25T12:34:37.972Z,8.50
2022-12-25T12:37:07.955Z,8.30
2022-12-25T12:39:40.529Z,10.17
2022-12-25T12:42:21.113Z,9.65
2022-12-25T12:44:49.549Z,8.77
2022-12-25T12:47:40.492Z,8.23
2022-12-25T12:50:26.062Z,8.13
2022-12-25T12:52:52.564Z,7.23
2022-12-25T12:55:36.883Z,10.27
2022-12-25T12:58:05.829Z,11.85
2022-12-25T13:00:49.017Z,10.75
2022-12-25T13:03:33.602Z,8.55
2022-12-25T13:06:17.068Z,10.20
2022-12-25T13:09:06.748Z,11.00
2022-12-25T13:11:38.904Z,8.75
2022-12-25T13:14:06.031Z,8.38
2022-12-25T13:16:42.383Z,7.78
2022-12-25T13:19:15.732Z,11.57
2022-12-25T13:21:53.127Z,10.50
2022-12-25T13:24:23.149Z,11.18
2022-12-25T13:26:49.947Z,7.60
2022-12-25T13:29:32.115Z,8.82
2022-12-25T13:32:00.454Z,10.32
2022-12-25T13:34:35.350Z,9.27
2022-12-25T13:37:24.148Z,7.68
2022-12-25T13:39:53.620Z,7.22
2022-12-25T13:42:23.855Z,6.90
2022-12-25T13:45:00.232Z,10.20
2022-12-25T13:47:31.796Z,20.17
2022-12-25T13:50:01.124Z,73.75
2022-12-25T13:52:38.164Z,12.10
2022-12-25T13:55:17.276Z,9.93
2022-12-25T13:57:59.189Z,11.55
2022-12-25T14:00:48.878Z,8.63
2022-12-25T14:03:21.802Z,8.55
2022-12-25T14:06:27.114Z,12.07
2022-12-25T14:08:55.942Z,10.93
2022-12-25T14:11:25.338Z,13.05
2022-12-25T14:13:56.928Z,11.35
2022-12-25T14:16:24.818Z,10.20
2022-12-25T14:19:00.645Z,11.07
2022-12-25T14:21:27.069Z,12.82
2022-12-25T14:23:54.348Z,15.07
2022-12-25T14:26:23.903Z,15.60
2022-12-25T14:28:57.599Z,13.65
2022-12-25T14:31:24.865Z,11.45
2022-12-25T14:33:52.661Z,12.98
2022-12-25T14:36:19.285Z,14.10
2022-12-25T14:38:56.925Z,12.38
2022-12-25T14:41:37.037Z,12.10
2022-12-25T14:44:06.736Z,11.57
2022-12-25T14:46:34.374Z,13.70
2022-12-25T14:49:22.678Z,11.73
2022-12-25T14:51:49.331Z,17.35
2022-12-25T14:54:20.040Z,13.77
2022-12-25T14:56:52.825Z,13.07
2022-12-25T14:59:26.139Z,17.40
2022-12-25T15:01:56.983Z,13.30
2022-12-25T15:04:24.936Z,15.10
2022-12-25T15:07:09.679Z,12.05
2022-12-25T15:09:37.730Z,13.32
2022-12-25T15:12:04.566Z,14.55
2022-12-25T15:14:31.510Z,14.15
2022-12-25T15:17:01.211Z,11.93
2022-12-25T15:19:38.300Z,14.70
2022-12-25T15:22:05.753Z,16.70
2022-12-25T15:24:32.361Z,18.17
2022-12-25T15:27:00.613Z,14.63
2022-12-25T15:30:07.352Z,10.65
2022-12-25T15:32:20.915Z,13.43
2022-12-25T15:34:49.801Z,14.88
2022-12-25T15:37:18.065Z,26.13
2022-12-25T15:39:45.287Z,19.38
2022-12-25T15:42:17.768Z,17.38
2022-12-25T15:44:45.373Z,18.00
2022-12-25T15:47:13.724Z,17.83
2022-12-25T15:49:40.602Z,17.85
2022-12-25T15:52:09.905Z,14.87
2022-12-25T15:54:36.432Z,14.57
2022-12-25T15:57:05.293Z,16.67
2022-12-25T15:59:32.311Z,16.65
2022-12-25T16:02:01.542Z,17.45
2022-12-25T16:04:31.288Z,14.02
2022-12-25T16:06:58.628Z,14.43
2022-12-25T16:09:26.504Z,15.02
2022-12-25T16:11:52.970Z,15.38
2022-12-25T16:14:19.594Z,16.33
2022-12-25T16:16:46.179Z,17.30
2022-12-25T16:19:12.660Z,15.73
2022-12-25T16:21:48.254Z,15.90
2022-12-25T16:24:15.320Z,21.00
2022-12-25T16:26:43.276Z,19.80
2022-12-25T16:29:10.123Z,20.33
2022-12-25T16:31:37.954Z,16.63
2022-12-25T16:34:06.016Z,20.27
2022-12-25T16:36:33.363Z,12.68
2022-12-25T16:39:00.249Z,13.40
2022-12-25T16:41:26.830Z,15.07
2022-12-25T16:43:53.434Z,19.60
2022-12-25T16:47:57.706Z,20.67
2022-12-25T16:50:24.275Z,19.75
2022-12-25T16:52:50.899Z,18.20
2022-12-25T16:55:17.589Z,16.48
2022-12-25T16:57:44.113Z,15.20
2022-12-25T17:00:12.541Z,17.20
2022-12-25T17:02:40.607Z,15.43
2022-12-25T17:05:07.659Z,13.90
2022-12-25T17:07:35.456Z,17.95
2022-12-25T17:10:02.022Z,19.85
2022-12-25T17:12:28.478Z,21.13
2022-12-25T17:14:54.961Z,21.42
2022-12-25T17:17:21.433Z,19.55
2022-12-25T17:19:47.886Z,19.15
2022-12-25T17:22:14.358Z,23.00
2022-12-25T17:24:41.501Z,22.15
2022-12-25T17:27:09.303Z,24.10
2022-12-25T17:29:41.119Z,26.15
2022-12-25T17:32:08.648Z,22.20
2022-12-25T17:34:35.283Z,32.53
2022-12-25T17:37:01.801Z,25.42
2022-12-25T17:39:28.391Z,26.67
2022-12-25T17:41:54.903Z,21.67
2022-12-25T17:44:21.792Z,24.17
2022-12-25T17:46:49.143Z,29.50
2022-12-25T17:49:18.202Z,39.17
2022-12-25T17:51:45.917Z,23.53
2022-12-25T17:54:12.905Z,27.38
2022-12-25T17:56:39.672Z,35.50
2022-12-25T17:59:08.368Z,25.65
2022-12-25T18:01:37.598Z,31.08
2022-12-25T18:04:06.232Z,30.07
2022-12-25T18:06:35.803Z,46.60
2022-12-25T18:09:06.038Z,36.30
2022-12-25T18:11:36.935Z,50.00
2022-12-25T18:14:05.346Z,36.53
2022-12-25T18:16:35.686Z,44.85
2022-12-25T18:19:02.725Z,49.17
2022-12-25T18:21:30.248Z,52.22
2022-12-25T18:23:57.119Z,38.92
2022-12-25T18:26:25.051Z,38.42
2022-12-25T18:28:51.638Z,39.42
2022-12-25T18:31:21.650Z,46.67
2022-12-25T18:33:49.372Z,44.17
2022-12-25T18:36:19.994Z,35.75
2022-12-25T18:38:47.575Z,35.50
2022-12-25T18:41:14.391Z,43.38
2022-12-25T18:43:52.094Z,31.38
2022-12-25T18:46:24.076Z,37.22
2022-12-25T18:48:51.323Z,24.17
2022-12-25T18:51:17.968Z,35.97
2022-12-25T18:53:44.585Z,22.77
2022-12-25T18:56:15.152Z,20.95
2022-12-25T18:58:41.779Z,27.63
2022-12-25T19:01:18.881Z,22.63
2022-12-25T19:03:46.405Z,23.30
2022-12-25T19:06:21.739Z,20.13
2022-12-25T19:08:48.685Z,24.10
2022-12-25T19:11:15.674Z,23.63
2022-12-25T19:13:42.972Z,18.95
2022-12-25T19:16:10.861Z,36.03
2022-12-25T19:18:38.658Z,37.20
2022-12-25T19:21:07.089Z,34.22
2022-12-25T19:23:34.427Z,24.58
2022-12-25T19:26:03.173Z,27.73
2022-12-25T19:28:29.692Z,22.65
2022-12-25T19:30:59.577Z,24.43
2022-12-25T19:33:26.363Z,22.52
2022-12-25T19:35:52.832Z,27.48
2022-12-25T19:38:20.190Z,27.17
2022-12-25T19:41:00.554Z,50.80
2022-12-25T19:43:32.902Z,29.40
2022-12-25T19:46:00.355Z,19.98
2022-12-25T19:48:27.366Z,22.30
2022-12-25T19:50:54.259Z,24.73
2022-12-25T19:53:23.682Z,22.08
2022-12-25T19:55:52.571Z,14.10
2022-12-25T19:58:21.078Z,13.70
2022-12-25T20:01:02.717Z,15.18
2022-12-25T20:03:29.359Z,15.60
2022-12-25T20:05:56.580Z,13.88
2022-12-25T20:08:23.414Z,11.27
2022-12-25T20:10:50.049Z,11.90
2022-12-25T20:13:17.161Z,13.13
2022-12-25T20:15:44.057Z,11.15
2022-12-25T20:18:10.589Z,12.00
2022-12-25T20:20:37.162Z,12.52
2022-12-25T20:23:03.774Z,12.90
2022-12-25T20:25:30.264Z,12.30
2022-12-25T20:27:56.823Z,12.27
2022-12-25T20:30:23.589Z,13.93
2022-12-25T20:32:50.809Z,15.80
2022-12-25T20:35:17.468Z,12.48
2022-12-25T20:37:43.924Z,14.18
2022-12-25T20:40:11.655Z,13.88
2022-12-25T20:42:38.297Z,13.68
2022-12-25T20:45:07.379Z,13.27
2022-12-25T20:47:34.683Z,17.00
2022-12-25T20:50:01.207Z,14.82
2022-12-25T20:52:27.884Z,11.52
2022-12-25T20:54:54.543Z,12.77
2022-12-25T20:57:21.138Z,12.65
2022-12-25T20:59:47.595Z,14.38
2022-12-25T21:02:35.009Z,13.02
2022-12-25T21:05:01.220Z,14.02
2022-12-25T21:07:27.781Z,13.07
2022-12-25T21:09:54.473Z,15.43
2022-12-25T21:12:21.005Z,17.33
2022-12-25T21:14:47.489Z,17.52
2022-12-25T21:17:14.057Z,14.55
2022-12-25T21:19:40.638Z,15.38
2022-12-25T21:22:07.117Z,13.40
2022-12-25T21:24:33.776Z,13.65
2022-12-25T21:27:00.293Z,17.25
2022-12-25T21:29:26.815Z,15.98
2022-12-25T21:32:12.797Z,14.48
2022-12-25T21:34:39.898Z,14.60
2022-12-25T21:37:06.504Z,14.23
2022-12-25T21:39:33.321Z,20.13
2022-12-25T21:41:59.833Z,16.20
2022-12-25T21:44:26.510Z,16.60
2022-12-25T21:46:53.088Z,14.82
2022-12-25T21:49:39.712Z,17.05
2022-12-25T21:52:09.352Z,16.45
2022-12-25T21:54:36.204Z,16.67
2022-12-25T21:57:03.099Z,19.63
2022-12-25T21:59:29.712Z,18.45
2022-12-25T22:01:56.238Z,21.25
2022-12-25T22:04:23.108Z,19.17
2022-12-25T22:07:08.103Z,15.95
2022-12-25T22:09:34.986Z,18.77
2022-12-25T22:12:37.626Z,19.25
2022-12-25T22:15:06.804Z,19.55
2022-12-25T22:18:01.040Z,17.15
2022-12-25T22:20:27.686Z,14.65
2022-12-25T22:22:54.540Z,15.50
2022-12-25T22:25:22.103Z,14.00
2022-12-25T22:27:49.722Z,11.02
2022-12-25T22:30:22.840Z,11.70
2022-12-25T22:32:50.458Z,10.77
2022-12-25T22:35:17.373Z,12.07
2022-12-25T22:37:45.098Z,14.48
2022-12-25T22:40:15.772Z,15.55
2022-12-25T22:42:42.598Z,14.25
2022-12-25T22:45:10.194Z,13.48
2022-12-25T22:47:37.133Z,13.60
2022-12-25T22:50:04.417Z,12.68
2022-12-25T22:52:30.976Z,15.30
2022-12-25T22:54:57.521Z,11.52
2022-12-25T22:57:24.064Z,17.75
2022-12-25T22:59:53.001Z,11.70
2022-12-25T23:02:19.921Z,11.77
2022-12-25T23:04:46.643Z,10.50
2022-12-25T23:07:14.608Z,12.00
2022-12-25T23:09:41.974Z,11.85
2022-12-25T23:12:28.858Z,11.77
2022-12-25T23:14:56.319Z,11.52
2022-12-25T23:17:41.283Z,10.07
2022-12-25T23:20:27.207Z,10.57
2022-12-25T23:23:12.042Z,11.05
2022-12-25T23:25:56.926Z,11.63
2022-12-25T23:28:41.696Z,9.73
2022-12-25T23:31:09.347Z,11.95
2022-12-25T23:33:35.872Z,10.40
2022-12-25T23:36:02.381Z,9.30
2022-12-25T23:38:29.033Z,10.40
2022-12-25T23:40:55.483Z,10.50
2022-12-25T23:43:22.012Z,11.77
2022-12-25T23:45:48.506Z,11.23
2022-12-25T23:48:15.166Z,12.70
2022-12-25T23:50:41.869Z,11.68
2022-12-25T23:53:10.171Z,11.77
2022-12-25T23:55:37.359Z,9.32
2022-12-25T23:58:04.281Z,11.77
